Martin, Utah
Current Conditions -  °F | °C
As of 6:53 AM on Thursday 18 Dec 2014 (Local Time) from KPUC Reporting Station
Moderate Fog Moderate Fog  
Wind Chill: -6°   Ceiling: 100
Heat Index: -3°   Visibility: 0.25mi
Dew Point: -5°   Wind: 5mph
Humidity: 88%   Direction: 80°E
Pressure: 30.09"   Gusts: NA
Location:  39.7304°N, 110.917°W
Report Text: KPUC 181353Z AUTO 08004KT 1/4SM FZFG VV001 M03/M05 A3009 RMK AO2 SLP233 I1002 T10331050
Loading
Personal Weather Stations






























Interactive Weather Map New forecast layout! Learn more

10-Day Weather Forecast

Advertisements
Track Severe Weather on mobile